Wetterstation Vordersexau
Wetterdaten: Dezember 2015
Datum Temp. A. Feuchte A. Luftdruck Regen Wind Richtung Taupunkt Windchill Windben
01.12.2015 10,2 C 79 % 1027,3 hPa 0,0 l/m 19,3 km/h W 6,7 C 4,4 C 10,7 km/h
02.12.2015 9,5 C 78 % 1027,3 hPa 0,0 l/m 0,3 km/h SO 5,6 C 9,5 C 0,2 km/h
03.12.2015 1,7 C 88 % 1027,3 hPa 0,0 l/m 0,7 km/h O-SO -0,0 C 1,5 C 0,4 km/h
04.12.2015 6,3 C 82 % 1029,3 hPa 0,0 l/m 2,9 km/h N-NO 3,4 C 5,5 C 1,6 km/h
05.12.2015 7,4 C 82 % 1029,3 hPa 0,0 l/m 0,1 km/h O 4,3 C 7,4 C 0,1 km/h
06.12.2015 11,0 C 75 % 1027,2 hPa 0,0 l/m 8,8 km/h W-SW 6,7 C 8,6 C 4,9 km/h
07.12.2015 10,2 C 79 % 1029,6 hPa 0,0 l/m 0,7 km/h O-SO 6,4 C 10,0 C 0,4 km/h
08.12.2015 7,1 C 80 % 1029,1 hPa 0,0 l/m 0,0 km/h O-SO 3,7 C 7,1 C 0,0 km/h
09.12.2015 7,6 C 82 % 1034,1 hPa 5,0 l/m 1,2 km/h SO 4,6 C 7,2 C 0,7 km/h
10.12.2015 2,2 C 82 % 1032,5 hPa 0,4 l/m 0,3 km/h O-SO -0,7 C 2,1 C 0,2 km/h
11.12.2015 5,4 C 77 % 1027,5 hPa 0,0 l/m 10,4 km/h N-NO 1,5 C 2,2 C 5,8 km/h
12.12.2015 8,6 C 73 % 1023,6 hPa 0,0 l/m 9,8 km/h W-SW 3,8 C 5,8 C 5,5 km/h
13.12.2015 5,7 C 81 % 1020,3 hPa 0,0 l/m 0,3 km/h O-SO 2,5 C 5,7 C 0,2 km/h
14.12.2015 3,6 C 85 % 1019,7 hPa 0,0 l/m 0,0 km/h W-NW 1,3 C 3,6 C 0,0 km/h
15.12.2015 6,7 C 84 % 1022,6 hPa 0,0 l/m 1,7 km/h NO 4,2 C 6,1 C 1,0 km/h
16.12.2015 10,8 C 86 % 1025,3 hPa 3,3 l/m 8,8 km/h W-SW 8,5 C 8,4 C 4,9 km/h
17.12.2015 12,6 C 81 % 1024,4 hPa 0,0 l/m 1,0 km/h O-SO 9,2 C 12,6 C 0,6 km/h
18.12.2015 10,3 C 83 % 1022,7 hPa 0,0 l/m 0,4 km/h NO 7,5 C 10,2 C 0,2 km/h
19.12.2015 8,2 C 82 % 1021,4 hPa 0,0 l/m 0,8 km/h O-SO 5,2 C 8,1 C 0,5 km/h
20.12.2015 9,2 C 78 % 1019,7 hPa 0,0 l/m 1,3 km/h NO 5,3 C 9,0 C 0,7 km/h
21.12.2015 11,1 C 75 % 1025,5 hPa 5,0 l/m 17,0 km/h W-SW 6,8 C 6,2 C 9,4 km/h
22.12.2015 12,2 C 66 % 1027,1 hPa 0,0 l/m 11,0 km/h W-SW 5,9 C 9,3 C 6,1 km/h
23.12.2015 11,0 C 76 % 1026,7 hPa 0,0 l/m 9,1 km/h SW 6,8 C 8,7 C 5,0 km/h
24.12.2015 11,2 C 74 % 1023,9 hPa 0,0 l/m 3,6 km/h SO 6,4 C 10,4 C 2,0 km/h
25.12.2015 11,6 C 73 % 1028,4 hPa 0,0 l/m 5,5 km/h S 6,6 C 10,5 C 3,1 km/h
26.12.2015 8,2 C 79 % 1028,3 hPa 0,0 l/m 4,1 km/h O-SO 4,4 C 7,3 C 2,3 km/h
27.12.2015 7,3 C 79 % 1028,3 hPa 0,0 l/m 0,8 km/h O-SO 3,5 C 7,2 C 0,4 km/h
28.12.2015 4,3 C 79 % 1025,3 hPa 0,0 l/m 0,0 km/h NW 0,6 C 4,3 C 0,0 km/h
29.12.2015 6,2 C 78 % 1025,4 hPa 0,0 l/m 1,1 km/h NW 2,5 C 6,1 C 0,6 km/h
30.12.2015 2,8 C 87 % 1023,6 hPa 0,0 l/m 1,0 km/h SO 0,9 C 2,6 C 0,6 km/h
31.12.2015 5,8 C 87 % 1021,2 hPa 0,8 l/m 1,2 km/h SO 3,8 C 5,4 C 0,7 km/h
Min-Datum 10.12.15 07.12.15 30.12.15 5 Tage 01.12.15 - 10.12.15 09.12.15 01.12.15
Min-Zeit 08:42 15:42 23:42 - 19:42 - 08:42 18:42 19:42
Minimum -2,7 C 45 % 1018,2 hPa - 0,0 km/h - -4,6 C -5,5 C 0,0 km/h
Max-Datum 07.12.15 02.12.15 09.12.15 09.12.15 01.12.15 - 17.12.15 07.12.15 01.12.15
Max-Zeit 15:42 23:42 18:42 05:42 00:42 - 10:42 15:42 00:42
Maximum 23,3 C 89 % 1037,3 hPa 5,0 l/m 52,5 km/h
W
- 15,9 C 23,3 C 29,2 km/h
W
Durchschnitt 7,9 C 80 % 1025,9 hPa #14,5 l/m 4,0 km/h SO 4,4 C 6,9 C 2,2 km/h

Durchschnitt Minimum Temp.2,5 C
Durchschnitt Maximum Temp.15,1 C
www.sexauwetter.de